Time;durP1;ratioP1;P1;durP2;ratioP2;P2;SDS_P1;SDS_P2;PMS_P1;PMS_P2;Temp;Humidity;BMP_temperature;BMP_pressure;BME280_temperature;BME280_humidity;BME280_pressure;Samples;Min_cycle;Max_cycle;Signal;HPM_P1;HPM_P2
2023/09/22 00:00:55;;;;;;;4.70;4.40;;;17.20;48.00;;;;;;4979747;28;20537;-77
2023/09/22 00:03:23;;;;;;;4.80;4.60;;;17.10;48.30;;;;;;4979604;28;20422;-77
2023/09/22 00:05:48;;;;;;;4.73;4.60;;;17.10;49.40;;;;;;4979738;28;20440;-78
2023/09/22 00:08:15;;;;;;;4.57;4.40;;;17.00;48.30;;;;;;4979093;28;20546;-77
2023/09/22 00:10:40;;;;;;;5.10;4.60;;;17.10;48.50;;;;;;4978462;28;20573;-77
2023/09/22 00:13:06;;;;;;;4.60;4.40;;;17.10;47.80;;;;;;4978924;28;20434;-77
2023/09/22 00:15:34;;;;;;;5.37;5.10;;;17.10;48.40;;;;;;4979048;28;20214;-77
2023/09/22 00:17:59;;;;;;;4.93;4.73;;;17.00;46.30;;;;;;4979336;28;20209;-77
2023/09/22 00:20:25;;;;;;;5.00;4.80;;;16.90;46.90;;;;;;4986581;28;20500;-77
2023/09/22 00:22:52;;;;;;;4.83;4.67;;;16.90;47.70;;;;;;4979182;28;20343;-77
2023/09/22 00:25:18;;;;;;;4.87;4.67;;;16.90;46.80;;;;;;4979982;28;20177;-77
2023/09/22 00:27:43;;;;;;;5.10;5.00;;;16.90;46.80;;;;;;4979131;28;20442;-77
2023/09/22 00:30:10;;;;;;;4.40;4.30;;;16.90;45.70;;;;;;4979754;28;20633;-77
2023/09/22 00:32:36;;;;;;;4.87;4.70;;;16.90;45.10;;;;;;4978292;28;20187;-77
2023/09/22 00:35:03;;;;;;;4.87;4.57;;;16.90;45.70;;;;;;4978092;28;20944;-77
2023/09/22 00:37:29;;;;;;;4.73;4.53;;;16.90;44.50;;;;;;4978132;28;20961;-77
2023/09/22 00:39:55;;;;;;;5.20;5.00;;;16.90;44.60;;;;;;4978486;28;20446;-77
2023/09/22 00:42:22;;;;;;;5.10;4.87;;;16.90;43.90;;;;;;4977955;28;20190;-77
2023/09/22 00:44:48;;;;;;;5.10;4.90;;;17.00;43.50;;;;;;4977684;28;20178;-77
2023/09/22 00:47:14;;;;;;;5.33;5.13;;;17.00;44.50;;;;;;4985573;28;20438;-77
2023/09/22 00:49:45;;;;;;;5.47;5.27;;;17.00;45.00;;;;;;4976271;28;20807;-77
2023/09/22 00:52:13;;;;;;;5.33;5.00;;;17.00;44.40;;;;;;4992443;28;20426;-77
2023/09/22 00:54:39;;;;;;;5.63;5.43;;;17.00;44.60;;;;;;4977756;28;20850;-77
2023/09/22 00:57:05;;;;;;;5.30;5.10;;;16.90;44.00;;;;;;4976205;28;20434;-77
2023/09/22 00:59:34;;;;;;;5.10;4.87;;;16.80;43.40;;;;;;4975401;28;20501;-77
2023/09/22 01:02:00;;;;;;;4.90;4.80;;;16.60;45.50;;;;;;4975586;28;20430;-77
2023/09/22 01:04:27;;;;;;;5.20;5.00;;;16.40;43.80;;;;;;4976530;28;20418;-77
2023/09/22 01:06:53;;;;;;;5.37;5.27;;;16.40;45.40;;;;;;4976075;28;20860;-77
2023/09/22 01:09:19;;;;;;;5.37;5.17;;;16.40;46.10;;;;;;4976892;28;20950;-77
2023/09/22 01:11:45;;;;;;;5.17;4.97;;;16.40;44.70;;;;;;4975647;28;20426;-76
2023/09/22 01:14:10;;;;;;;5.57;5.30;;;16.40;44.50;;;;;;4976829;28;20186;-77
2023/09/22 01:16:37;;;;;;;5.77;5.47;;;16.30;43.70;;;;;;4976191;28;20225;-77
2023/09/22 01:19:10;;;;;;;5.43;5.23;;;16.30;44.00;;;;;;4976110;28;20330;-77
2023/09/22 01:21:35;;;;;;;5.70;5.50;;;16.30;43.30;;;;;;4976307;28;20497;-77
2023/09/22 01:24:01;;;;;;;5.67;5.47;;;16.20;42.60;;;;;;4976293;28;20491;-77
2023/09/22 01:26:29;;;;;;;6.10;5.90;;;16.30;44.10;;;;;;4977412;28;20198;-77
2023/09/22 01:28:55;;;;;;;6.33;6.03;;;16.30;41.50;;;;;;4976374;28;20203;-76
2023/09/22 01:31:21;;;;;;;5.60;5.40;;;16.30;42.50;;;;;;4974270;28;20434;-76
2023/09/22 01:33:46;;;;;;;5.80;5.60;;;16.40;42.20;;;;;;4974417;28;20434;-76
2023/09/22 01:36:15;;;;;;;5.83;5.60;;;16.40;40.80;;;;;;4981755;28;20569;-76
2023/09/22 01:38:41;;;;;;;5.63;5.43;;;16.40;41.70;;;;;;4973571;28;20237;-76
2023/09/22 01:41:06;;;;;;;6.27;6.03;;;16.40;42.40;;;;;;4981231;28;20482;-76
2023/09/22 01:43:32;;;;;;;6.13;5.93;;;16.40;41.60;;;;;;4974619;28;20186;-76
2023/09/22 01:45:58;;;;;;;6.97;6.40;;;16.40;41.80;;;;;;4973776;28;20214;-77
2023/09/22 01:48:24;;;;;;;6.17;5.97;;;16.40;41.60;;;;;;4972370;28;20182;-77
2023/09/22 01:50:50;;;;;;;6.80;6.57;;;16.30;40.90;;;;;;4975643;28;20202;-76
2023/09/22 01:53:15;;;;;;;6.43;6.23;;;16.40;41.40;;;;;;4975284;28;20913;-76
2023/09/22 01:55:41;;;;;;;5.93;5.73;;;16.40;40.70;;;;;;4974684;28;20625;-76
2023/09/22 01:58:07;;;;;;;6.50;6.30;;;16.50;41.30;;;;;;4974538;28;20304;-76
2023/09/22 02:00:37;;;;;;;6.80;6.50;;;16.60;41.20;;;;;;4974923;28;20834;-76
2023/09/22 02:03:03;;;;;;;7.43;6.93;;;16.70;38.50;;;;;;4974726;28;20431;-77
2023/09/22 02:05:29;;;;;;;6.63;6.43;;;16.50;39.00;;;;;;4976066;28;20418;-77
2023/09/22 02:07:57;;;;;;;6.53;6.33;;;16.50;40.00;;;;;;4974997;28;20426;-78
2023/09/22 02:10:22;;;;;;;7.30;6.90;;;16.60;40.90;;;;;;4975687;28;20450;-77
2023/09/22 02:12:48;;;;;;;7.17;6.97;;;16.60;38.10;;;;;;4975867;28;20430;-77
2023/09/22 02:15:14;;;;;;;8.80;6.83;;;16.70;39.70;;;;;;4976196;28;20669;-78
2023/09/22 02:17:44;;;;;;;7.07;6.87;;;16.80;39.00;;;;;;4978399;28;20268;-78
2023/09/22 02:20:23;;;;;;;7.30;7.00;;;16.80;37.50;;;;;;4968718;28;20466;-77
2023/09/22 02:22:51;;;;;;;7.37;7.17;;;16.70;38.30;;;;;;4975594;28;20484;-77
2023/09/22 02:25:17;;;;;;;7.30;7.07;;;16.50;38.20;;;;;;4973422;28;20427;-77
2023/09/22 02:27:51;;;;;;;7.63;7.33;;;16.50;39.40;;;;;;4974415;28;20468;-78
2023/09/22 02:30:17;;;;;;;6.73;6.43;;;16.30;41.50;;;;;;4931322;28;1050639;-75
2023/09/22 02:32:48;;;;;;;7.17;6.97;;;16.30;40.10;;;;;;4975076;28;20466;-77
2023/09/22 02:35:15;;;;;;;7.07;6.70;;;16.20;41.40;;;;;;4973650;28;20273;-78
2023/09/22 02:37:41;;;;;;;6.77;6.57;;;16.20;41.10;;;;;;4974864;28;20477;-77
2023/09/22 02:40:07;;;;;;;6.90;6.60;;;16.30;40.40;;;;;;4975240;28;20449;-77
2023/09/22 02:42:34;;;;;;;7.00;6.70;;;16.40;40.00;;;;;;4975515;28;20804;-77
2023/09/22 02:44:59;;;;;;;6.80;6.60;;;16.50;40.00;;;;;;4974686;28;20430;-77
2023/09/22 02:47:28;;;;;;;6.77;6.57;;;16.70;39.60;;;;;;4974113;28;20434;-77
2023/09/22 02:49:57;;;;;;;7.27;7.03;;;16.70;38.90;;;;;;4975044;28;20213;-78
2023/09/22 02:52:22;;;;;;;6.87;6.53;;;16.70;38.20;;;;;;4974990;28;20434;-77
2023/09/22 02:54:54;;;;;;;6.50;6.30;;;16.70;39.60;;;;;;4974743;28;20429;-77
2023/09/22 02:57:20;;;;;;;6.97;6.77;;;16.70;38.90;;;;;;4975779;28;20187;-78
2023/09/22 02:59:46;;;;;;;7.60;7.30;;;16.80;37.90;;;;;;4976717;28;20446;-78
2023/09/22 03:02:12;;;;;;;7.57;7.17;;;17.00;38.90;;;;;;4975244;28;20944;-77
2023/09/22 03:04:39;;;;;;;6.90;6.70;;;17.10;39.20;;;;;;4974058;28;20183;-78
2023/09/22 03:07:04;;;;;;;7.60;7.40;;;17.20;38.30;;;;;;4975576;28;20425;-78
2023/09/22 03:09:30;;;;;;;6.77;6.57;;;17.10;38.40;;;;;;4975408;28;20460;-78
2023/09/22 03:11:55;;;;;;;7.00;6.80;;;17.20;38.60;;;;;;4974777;28;20262;-77
2023/09/22 03:14:21;;;;;;;7.30;7.10;;;17.20;37.90;;;;;;4973739;28;20237;-76
2023/09/22 03:16:47;;;;;;;7.70;7.40;;;17.30;36.70;;;;;;4973236;28;20198;-76
2023/09/22 03:19:12;;;;;;;7.90;7.50;;;17.30;36.40;;;;;;4972804;28;20864;-77
2023/09/22 03:21:38;;;;;;;7.33;7.13;;;17.20;34.60;;;;;;4973017;28;20654;-76
2023/09/22 03:24:04;;;;;;;8.43;8.20;;;17.10;35.40;;;;;;4973609;28;20662;-77
2023/09/22 03:26:30;;;;;;;8.30;7.90;;;17.00;36.00;;;;;;4973659;28;20218;-77
2023/09/22 03:28:55;;;;;;;7.87;7.57;;;16.80;36.50;;;;;;4979820;28;21032;-76
2023/09/22 03:31:21;;;;;;;8.63;8.33;;;16.70;37.40;;;;;;4973308;28;20238;-77
2023/09/22 03:33:47;;;;;;;8.63;8.23;;;16.40;37.80;;;;;;4972536;28;20191;-76
2023/09/22 03:36:13;;;;;;;7.83;7.53;;;16.40;37.80;;;;;;4973182;28;20225;-76
2023/09/22 03:38:46;;;;;;;7.10;6.90;;;16.20;38.90;;;;;;4973366;28;20203;-76
2023/09/22 03:41:14;;;;;;;6.87;6.53;;;16.20;39.70;;;;;;4973507;28;20442;-77
2023/09/22 03:43:39;;;;;;;7.00;6.70;;;16.20;40.90;;;;;;4972750;28;20438;-77
2023/09/22 03:46:05;;;;;;;6.50;6.30;;;16.10;41.40;;;;;;4973228;28;20425;-77
2023/09/22 03:48:30;;;;;;;7.30;7.00;;;16.10;41.50;;;;;;4973075;28;20190;-75
2023/09/22 03:50:56;;;;;;;6.40;6.20;;;16.10;41.40;;;;;;4972832;28;20260;-77
2023/09/22 03:53:22;;;;;;;6.60;6.30;;;16.10;42.20;;;;;;4972343;28;20194;-76
2023/09/22 03:55:48;;;;;;;7.40;7.00;;;16.10;42.00;;;;;;4972977;28;20667;-77
2023/09/22 03:58:17;;;;;;;6.97;6.47;;;16.10;41.70;;;;;;4973106;28;20461;-76
2023/09/22 04:00:43;;;;;;;6.20;5.97;;;16.00;42.80;;;;;;4972863;28;20450;-77
2023/09/22 04:03:09;;;;;;;7.17;6.87;;;16.00;43.30;;;;;;4979557;28;20517;-76
2023/09/22 04:05:36;;;;;;;6.60;6.40;;;16.00;43.00;;;;;;4972799;28;20955;-77
2023/09/22 04:08:02;;;;;;;6.70;6.50;;;16.10;43.50;;;;;;4973344;28;20217;-77
2023/09/22 04:10:27;;;;;;;7.30;7.00;;;16.20;42.00;;;;;;4972159;28;20462;-77
2023/09/22 04:12:53;;;;;;;7.60;7.40;;;16.40;42.30;;;;;;4972725;28;20277;-77
2023/09/22 04:15:19;;;;;;;7.70;7.30;;;16.30;41.20;;;;;;4972418;28;20186;-77
2023/09/22 04:17:46;;;;;;;7.07;6.87;;;16.40;40.90;;;;;;4987935;28;20292;-77
2023/09/22 04:20:12;;;;;;;7.10;6.70;;;16.50;41.30;;;;;;4974249;28;20442;-77
2023/09/22 04:22:39;;;;;;;7.30;7.03;;;16.60;40.80;;;;;;4973701;28;20534;-77
2023/09/22 04:25:11;;;;;;;7.90;7.60;;;16.60;40.00;;;;;;4974440;28;20430;-77
2023/09/22 04:27:43;;;;;;;7.90;7.53;;;16.60;39.20;;;;;;4977971;28;20441;-77
2023/09/22 04:30:11;;;;;;;8.33;7.73;;;16.60;38.80;;;;;;4977877;28;20491;-77
2023/09/22 04:32:38;;;;;;;8.30;8.00;;;16.60;38.80;;;;;;4977883;28;20436;-77
2023/09/22 04:35:06;;;;;;;8.60;8.20;;;16.50;38.90;;;;;;4977266;28;20430;-77
2023/09/22 04:37:32;;;;;;;7.60;7.30;;;16.50;38.60;;;;;;4976635;28;20462;-77
2023/09/22 04:39:58;;;;;;;7.30;7.10;;;16.50;38.90;;;;;;4976514;28;21008;-77
2023/09/22 04:42:24;;;;;;;7.43;7.10;;;16.40;38.90;;;;;;4975078;28;20517;-77
2023/09/22 04:44:50;;;;;;;7.50;7.20;;;16.50;39.40;;;;;;4974674;28;20206;-77
2023/09/22 04:47:16;;;;;;;7.20;7.00;;;16.50;38.80;;;;;;4974524;28;20426;-77
2023/09/22 04:49:42;;;;;;;8.07;7.57;;;16.50;38.60;;;;;;4975208;28;20442;-77
2023/09/22 04:52:08;;;;;;;6.97;6.73;;;16.50;38.90;;;;;;4975458;28;20186;-77
2023/09/22 04:54:34;;;;;;;6.60;6.30;;;16.50;39.00;;;;;;4975679;28;20215;-77
2023/09/22 04:56:59;;;;;;;6.57;6.17;;;16.50;38.50;;;;;;4990602;28;20210;-77
2023/09/22 04:59:25;;;;;;;6.80;6.40;;;16.50;38.90;;;;;;4991550;28;20465;-77
2023/09/22 05:01:50;;;;;;;6.70;6.50;;;16.40;39.10;;;;;;4975256;28;20815;-77
2023/09/22 05:04:16;;;;;;;7.10;6.70;;;16.50;38.60;;;;;;4976241;28;20179;-77
2023/09/22 05:06:45;;;;;;;6.60;6.30;;;16.50;38.60;;;;;;4976960;28;20728;-77
2023/09/22 05:09:11;;;;;;;6.57;6.27;;;16.60;38.90;;;;;;4976641;28;20265;-77
2023/09/22 05:11:38;;;;;;;7.00;6.70;;;16.70;39.00;;;;;;4975693;28;20426;-78
2023/09/22 05:14:06;;;;;;;6.67;6.43;;;16.70;38.50;;;;;;4976320;28;20422;-77
2023/09/22 05:16:32;;;;;;;7.00;6.80;;;16.60;37.90;;;;;;4975998;28;20816;-77
2023/09/22 05:18:59;;;;;;;7.70;7.40;;;16.60;37.50;;;;;;4975801;28;20458;-78
2023/09/22 05:21:25;;;;;;;7.20;7.00;;;16.50;37.20;;;;;;4976217;28;20202;-77
2023/09/22 05:23:51;;;;;;;6.57;6.37;;;16.40;37.10;;;;;;4975971;28;20460;-77
2023/09/22 05:26:17;;;;;;;7.80;7.30;;;16.40;37.60;;;;;;4974160;28;20237;-77
2023/09/22 05:28:42;;;;;;;8.20;7.90;;;16.50;37.30;;;;;;4976135;28;20492;-78
2023/09/22 05:31:09;;;;;;;8.03;7.77;;;16.40;37.10;;;;;;5005057;23;20225;-76
2023/09/22 05:33:36;;;;;;;7.93;7.60;;;16.50;37.60;;;;;;5001436;28;20189;-76
2023/09/22 05:36:02;;;;;;;7.90;7.60;;;16.40;37.10;;;;;;4996150;28;20425;-78
2023/09/22 05:38:28;;;;;;;8.27;7.90;;;16.40;37.30;;;;;;4994548;28;20461;-79
2023/09/22 05:40:53;;;;;;;7.80;7.50;;;16.30;37.90;;;;;;4993969;28;20453;-78
2023/09/22 05:43:22;;;;;;;8.00;7.67;;;16.20;38.20;;;;;;4994565;28;20665;-78
2023/09/22 05:45:53;;;;;;;8.03;7.73;;;16.10;38.80;;;;;;4994332;28;20600;-78
2023/09/22 05:48:19;;;;;;;8.50;8.20;;;16.00;39.10;;;;;;4993710;28;20433;-78
2023/09/22 05:50:53;;;;;;;7.77;7.30;;;15.90;40.00;;;;;;4995135;28;20453;-77
2023/09/22 05:53:18;;;;;;;7.20;6.90;;;15.90;40.50;;;;;;4993665;28;20181;-77
2023/09/22 05:55:44;;;;;;;8.03;7.40;;;15.90;40.70;;;;;;4995380;28;21002;-77
2023/09/22 05:58:11;;;;;;;8.07;7.60;;;15.90;40.30;;;;;;4993693;28;20248;-78
2023/09/22 06:00:36;;;;;;;8.07;7.50;;;15.90;40.80;;;;;;4994840;28;20289;-77
2023/09/22 06:03:02;;;;;;;7.40;7.10;;;15.90;41.00;;;;;;4994303;28;20464;-77
2023/09/22 06:05:28;;;;;;;7.27;6.97;;;15.90;40.40;;;;;;4995074;28;20182;-78
2023/09/22 06:07:54;;;;;;;7.30;7.00;;;15.90;40.20;;;;;;4996118;28;20224;-77
2023/09/22 06:10:20;;;;;;;7.70;7.40;;;16.00;39.90;;;;;;4996276;28;20584;-78
2023/09/22 06:12:46;;;;;;;7.43;7.13;;;16.00;40.10;;;;;;4995584;28;20421;-78
2023/09/22 06:15:12;;;;;;;8.40;7.90;;;16.10;40.30;;;;;;4994406;28;20533;-78
2023/09/22 06:17:38;;;;;;;7.90;7.50;;;16.10;40.80;;;;;;4996198;28;20241;-77
2023/09/22 06:20:09;;;;;;;7.30;7.00;;;16.10;40.80;;;;;;4993811;28;20820;-77
2023/09/22 06:22:35;;;;;;;7.23;6.83;;;16.10;39.50;;;;;;4995375;28;20491;-77
2023/09/22 06:25:00;;;;;;;7.97;7.57;;;16.20;40.40;;;;;;4994151;28;20437;-78
2023/09/22 06:27:26;;;;;;;8.27;7.57;;;16.20;38.30;;;;;;4994161;28;20186;-77
2023/09/22 06:29:52;;;;;;;9.20;8.73;;;16.30;38.20;;;;;;4992917;28;20210;-78
2023/09/22 06:32:18;;;;;;;8.97;7.43;;;16.20;37.70;;;;;;4994115;28;20508;-78
2023/09/22 06:34:43;;;;;;;7.97;7.67;;;16.20;38.20;;;;;;4995193;28;20185;-78
2023/09/22 06:37:09;;;;;;;7.67;7.37;;;16.20;37.70;;;;;;4994519;28;20181;-79
2023/09/22 06:39:35;;;;;;;7.83;7.53;;;16.20;37.40;;;;;;4994546;28;20757;-78
2023/09/22 06:42:00;;;;;;;8.40;7.60;;;16.20;37.50;;;;;;4994839;28;20178;-78
2023/09/22 06:44:27;;;;;;;7.80;7.37;;;16.20;38.00;;;;;;4996557;28;20425;-78
2023/09/22 06:46:53;;;;;;;8.60;8.20;;;16.20;37.40;;;;;;4996860;28;20258;-78
2023/09/22 06:49:19;;;;;;;8.10;7.70;;;16.30;37.70;;;;;;4995731;28;20512;-78
2023/09/22 06:51:44;;;;;;;8.80;8.40;;;16.40;37.30;;;;;;4998976;28;20182;-77
2023/09/22 06:54:10;;;;;;;8.87;8.30;;;16.40;37.10;;;;;;4996149;28;20196;-78
2023/09/22 06:56:36;;;;;;;7.90;7.40;;;16.40;37.10;;;;;;4996155;28;20580;-78
2023/09/22 06:59:02;;;;;;;8.70;7.93;;;16.40;37.10;;;;;;4995550;28;20463;-77
2023/09/22 07:01:28;;;;;;;8.37;8.07;;;16.30;37.80;;;;;;4995009;28;20205;-77
2023/09/22 07:03:53;;;;;;;8.30;8.00;;;16.20;37.50;;;;;;4997922;28;20788;-78
2023/09/22 07:06:20;;;;;;;8.70;8.40;;;16.30;37.90;;;;;;4997440;28;20571;-79
2023/09/22 07:08:46;;;;;;;7.93;7.73;;;16.30;38.00;;;;;;4997175;28;20653;-78
2023/09/22 07:11:13;;;;;;;8.20;7.80;;;16.30;37.90;;;;;;4993659;28;20492;-77
2023/09/22 07:13:40;;;;;;;8.93;8.20;;;16.30;37.70;;;;;;4994521;28;20481;-78
2023/09/22 07:16:06;;;;;;;8.30;8.00;;;16.30;37.90;;;;;;4996482;28;20868;-78
2023/09/22 07:18:32;;;;;;;9.10;8.60;;;16.30;37.20;;;;;;4995186;28;20474;-78
2023/09/22 07:20:57;;;;;;;7.93;7.63;;;16.30;37.70;;;;;;4995507;28;20449;-78
2023/09/22 07:23:24;;;;;;;8.40;8.00;;;16.40;37.20;;;;;;4994482;28;20174;-78
2023/09/22 07:26:03;;;;;;;7.50;7.20;;;16.40;37.20;;;;;;4995543;28;20182;-78
2023/09/22 07:28:30;;;;;;;8.90;8.07;;;16.50;37.70;;;;;;4987347;28;20936;-77
2023/09/22 07:30:55;;;;;;;8.80;8.40;;;16.50;37.20;;;;;;4994726;28;20456;-78
2023/09/22 07:33:24;;;;;;;7.80;7.50;;;16.50;37.20;;;;;;4992883;28;20439;-77
2023/09/22 07:35:50;;;;;;;8.27;7.97;;;16.60;36.70;;;;;;4993814;28;20213;-79
2023/09/22 07:38:19;;;;;;;8.20;7.70;;;16.60;37.10;;;;;;4995805;28;20472;-78
2023/09/22 07:40:45;;;;;;;8.67;8.27;;;16.50;37.10;;;;;;4994892;28;20457;-78
2023/09/22 07:43:11;;;;;;;8.57;8.17;;;16.50;37.20;;;;;;4995134;28;20429;-78
2023/09/22 07:45:37;;;;;;;8.17;7.87;;;16.50;37.00;;;;;;4996470;28;20189;-78
2023/09/22 07:48:03;;;;;;;9.40;9.00;;;16.60;37.10;;;;;;4998939;28;20433;-78
2023/09/22 07:50:29;;;;;;;7.50;7.30;;;16.60;36.40;;;;;;4998386;28;20692;-79
2023/09/22 07:52:56;;;;;;;7.83;7.43;;;16.60;36.50;;;;;;4996187;28;20437;-78
2023/09/22 07:55:22;;;;;;;7.13;6.87;;;16.60;37.20;;;;;;4996817;28;22718;-79
2023/09/22 07:57:49;;;;;;;7.90;7.60;;;16.70;36.50;;;;;;4995119;28;20469;-78
2023/09/22 08:00:18;;;;;;;7.47;7.27;;;16.60;36.90;;;;;;4996472;28;20224;-78
2023/09/22 08:02:45;;;;;;;7.63;7.33;;;16.70;37.10;;;;;;5000074;28;20853;-79
2023/09/22 08:05:15;;;;;;;7.70;7.40;;;16.80;36.40;;;;;;5002540;28;20456;-78
2023/09/22 08:07:44;;;;;;;7.60;7.37;;;16.80;36.40;;;;;;5001750;28;20459;-81
2023/09/22 08:10:11;;;;;;;6.97;6.77;;;16.70;37.40;;;;;;5002616;28;20983;-78
2023/09/22 08:12:38;;;;;;;7.40;7.10;;;16.60;37.30;;;;;;5006288;28;20429;-80
2023/09/22 08:15:04;;;;;;;8.13;7.73;;;16.60;37.30;;;;;;5007257;28;20453;-78
2023/09/22 08:17:30;;;;;;;8.83;8.37;;;16.60;37.30;;;;;;5010790;28;20424;-78
2023/09/22 08:19:56;;;;;;;7.80;7.50;;;16.60;38.00;;;;;;5008895;28;20510;-79
2023/09/22 08:22:21;;;;;;;7.10;6.80;;;16.60;37.90;;;;;;5004901;28;20577;-78
2023/09/22 08:24:47;;;;;;;7.17;6.77;;;16.60;37.70;;;;;;5004127;28;20248;-79
2023/09/22 08:27:12;;;;;;;8.30;7.90;;;16.70;37.40;;;;;;5000041;28;20194;-77
2023/09/22 08:29:39;;;;;;;7.90;7.60;;;16.70;37.40;;;;;;4999530;28;20237;-79
2023/09/22 08:32:05;;;;;;;8.10;7.80;;;16.70;37.50;;;;;;4998607;28;20196;-77
2023/09/22 08:34:35;;;;;;;7.40;7.10;;;16.70;36.60;;;;;;5000557;28;20433;-79
2023/09/22 08:37:00;;;;;;;7.70;7.40;;;16.80;36.50;;;;;;4999618;28;20268;-79
2023/09/22 08:39:26;;;;;;;7.20;6.90;;;16.80;35.80;;;;;;4997673;28;20499;-78
2023/09/22 08:41:52;;;;;;;7.50;7.20;;;16.80;35.80;;;;;;4998709;28;20182;-78
2023/09/22 08:44:19;;;;;;;7.03;6.73;;;16.70;36.90;;;;;;4997951;28;20185;-77
2023/09/22 08:46:47;;;;;;;7.07;6.80;;;16.80;36.50;;;;;;4998769;28;20847;-79
2023/09/22 08:49:13;;;;;;;8.70;8.40;;;16.70;36.00;;;;;;4997598;28;20425;-78
2023/09/22 08:51:38;;;;;;;8.23;7.83;;;16.70;36.50;;;;;;4999120;28;20425;-79
2023/09/22 08:54:05;;;;;;;6.80;6.60;;;16.70;36.60;;;;;;4999265;28;20262;-78
2023/09/22 08:56:30;;;;;;;8.33;7.80;;;16.80;35.80;;;;;;4983096;28;20190;-77
2023/09/22 08:58:56;;;;;;;7.67;7.43;;;16.80;36.00;;;;;;4998309;28;20518;-76
2023/09/22 09:01:23;;;;;;;7.57;7.27;;;16.90;36.10;;;;;;4998869;28;20557;-78
2023/09/22 09:03:49;;;;;;;8.00;7.63;;;17.00;35.90;;;;;;4998031;28;20611;-77
2023/09/22 09:06:17;;;;;;;7.53;7.23;;;17.00;35.40;;;;;;4997095;28;20425;-77
2023/09/22 09:09:03;;;;;;;7.50;7.00;;;16.90;35.40;;;;;;4996987;28;20265;-77
2023/09/22 09:11:28;;;;;;;7.00;6.80;;;17.00;35.70;;;;;;4997344;28;20468;-76
2023/09/22 09:13:54;;;;;;;7.33;6.80;;;17.00;35.70;;;;;;4999365;28;20413;-78
2023/09/22 09:16:33;;;;;;;6.93;6.50;;;17.00;35.40;;;;;;4997893;28;20236;-78
2023/09/22 09:19:15;;;;;;;7.67;7.33;;;17.10;35.70;;;;;;4998766;28;20592;-78
2023/09/22 09:22:09;;;;;;;7.07;6.80;;;17.20;35.40;;;;;;4992863;28;20828;-76
2023/09/22 09:24:35;;;;;;;7.50;7.20;;;17.20;35.20;;;;;;4991220;28;20464;-77
2023/09/22 09:27:17;;;;;;;8.23;7.93;;;17.30;34.60;;;;;;4999789;28;20429;-77
2023/09/22 09:29:46;;;;;;;7.33;6.93;;;17.30;34.90;;;;;;4991322;28;20475;-77
2023/09/22 09:32:29;;;;;;;8.00;7.60;;;17.40;34.70;;;;;;4998342;28;20437;-76
2023/09/22 09:34:55;;;;;;;8.23;7.63;;;17.40;34.80;;;;;;5000693;28;20515;-75
2023/09/22 09:37:21;;;;;;;7.20;6.90;;;17.50;34.80;;;;;;4998246;28;20429;-76
2023/09/22 09:39:52;;;;;;;7.30;6.90;;;17.60;35.50;;;;;;4998362;28;20463;-75
2023/09/22 09:42:22;;;;;;;7.40;7.13;;;17.60;34.20;;;;;;4999033;28;20186;-78
2023/09/22 09:44:49;;;;;;;7.00;6.70;;;17.60;34.40;;;;;;4996759;28;20421;-78
2023/09/22 09:47:25;;;;;;;7.93;7.53;;;17.60;34.20;;;;;;4997715;28;20481;-78
2023/09/22 09:49:55;;;;;;;7.20;7.00;;;17.50;33.80;;;;;;4998659;28;20948;-78
2023/09/22 09:52:35;;;;;;;8.00;7.43;;;17.50;34.40;;;;;;4997649;28;20461;-77
2023/09/22 09:55:10;;;;;;;7.03;6.63;;;17.60;33.60;;;;;;4996769;28;20508;-79
2023/09/22 09:57:43;;;;;;;6.83;6.53;;;17.70;33.70;;;;;;4997761;28;20424;-77
2023/09/22 10:00:13;;;;;;;6.63;6.23;;;17.60;33.30;;;;;;4998119;28;20964;-77
2023/09/22 10:02:43;;;;;;;7.00;6.60;;;17.70;33.90;;;;;;4995682;28;20460;-78
2023/09/22 10:05:14;;;;;;;7.00;6.80;;;17.60;33.30;;;;;;4997865;28;20425;-77
2023/09/22 10:07:42;;;;;;;6.97;6.77;;;17.60;33.60;;;;;;4995893;28;20483;-77
2023/09/22 10:10:09;;;;;;;6.97;6.67;;;17.60;33.10;;;;;;4995425;28;20445;-78
2023/09/22 10:12:35;;;;;;;7.30;7.00;;;17.60;33.00;;;;;;4994772;28;20429;-78
2023/09/22 10:15:04;;;;;;;7.70;7.30;;;17.60;33.60;;;;;;4995102;28;20417;-78
2023/09/22 10:17:30;;;;;;;7.93;7.30;;;17.70;33.60;;;;;;4998098;28;20449;-78
2023/09/22 10:20:07;;;;;;;6.93;6.53;;;17.80;33.20;;;;;;4999183;28;20441;-77
2023/09/22 10:22:33;;;;;;;7.80;7.07;;;18.10;32.30;;;;;;4995822;28;20452;-77
2023/09/22 10:25:13;;;;;;;10.00;7.67;;;18.10;30.60;;;;;;4999239;28;20859;-78
2023/09/22 10:27:58;;;;;;;7.20;6.97;;;18.00;29.90;;;;;;4991077;28;20425;-78
2023/09/22 10:30:44;;;;;;;7.40;7.07;;;17.90;28.50;;;;;;4996977;28;20460;-79
2023/09/22 10:33:16;;;;;;;8.07;7.67;;;18.00;28.90;;;;;;4997922;28;20859;-77
2023/09/22 10:35:43;;;;;;;7.37;7.00;;;18.10;29.10;;;;;;4995042;28;20940;-78
2023/09/22 10:38:12;;;;;;;7.40;7.10;;;18.30;28.80;;;;;;4996480;28;20464;-77
2023/09/22 10:40:57;;;;;;;6.90;6.70;;;18.50;28.40;;;;;;4981092;28;20976;-77
2023/09/22 10:43:23;;;;;;;7.50;7.20;;;18.70;27.30;;;;;;4996174;28;20433;-76
2023/09/22 10:45:51;;;;;;;7.73;7.33;;;18.80;27.00;;;;;;4996329;28;20521;-78
2023/09/22 10:48:17;;;;;;;7.33;7.13;;;18.90;26.10;;;;;;4995793;28;20178;-77
2023/09/22 10:50:51;;;;;;;7.77;7.47;;;19.00;25.00;;;;;;4995079;28;20453;-78
2023/09/22 10:53:17;;;;;;;7.40;7.10;;;19.10;24.30;;;;;;4994179;28;20841;-78
2023/09/22 10:55:44;;;;;;;7.10;6.90;;;19.10;24.30;;;;;;4995700;28;20449;-78
2023/09/22 10:58:21;;;;;;;7.70;7.40;;;19.10;23.70;;;;;;4996081;28;20208;-79
2023/09/22 11:01:01;;;;;;;7.43;7.23;;;19.10;23.90;;;;;;4989726;28;20448;-78
2023/09/22 11:03:27;;;;;;;7.20;6.90;;;19.00;24.20;;;;;;4996279;28;20422;-78
2023/09/22 11:06:03;;;;;;;7.60;7.30;;;18.90;24.20;;;;;;4995000;28;20432;-78
2023/09/22 11:08:29;;;;;;;7.70;7.40;;;18.90;24.30;;;;;;4995011;28;20486;-78
2023/09/22 11:10:56;;;;;;;7.80;7.50;;;19.00;24.20;;;;;;4994827;28;20441;-78
2023/09/22 11:13:21;;;;;;;7.83;7.60;;;18.80;24.40;;;;;;4995598;28;20558;-79
2023/09/22 11:15:56;;;;;;;8.00;7.70;;;18.70;24.60;;;;;;4996217;28;20425;-77
2023/09/22 11:18:25;;;;;;;7.90;7.60;;;18.70;25.00;;;;;;4995470;28;20197;-78
2023/09/22 11:21:05;;;;;;;7.90;7.50;;;18.80;24.60;;;;;;4995659;28;20499;-78
2023/09/22 11:23:31;;;;;;;7.93;7.63;;;18.70;24.20;;;;;;4993731;28;20425;-78
2023/09/22 11:26:07;;;;;;;8.00;7.70;;;18.70;23.30;;;;;;4995186;28;20429;-79
2023/09/22 11:28:33;;;;;;;8.17;7.73;;;18.70;23.20;;;;;;4994486;28;20435;-78
2023/09/22 11:31:14;;;;;;;8.20;7.80;;;18.70;23.30;;;;;;5009486;22;20851;-79
2023/09/22 11:33:41;;;;;;;7.80;7.50;;;18.70;22.80;;;;;;4980550;28;20441;-76
2023/09/22 11:36:07;;;;;;;8.37;8.07;;;18.70;21.10;;;;;;5001604;28;20436;-79
2023/09/22 11:38:35;;;;;;;7.60;7.30;;;18.70;21.70;;;;;;4984539;28;20469;-77
2023/09/22 11:41:07;;;;;;;7.77;7.47;;;18.60;21.50;;;;;;4983936;28;20474;-77
2023/09/22 11:43:39;;;;;;;7.43;7.23;;;18.80;21.60;;;;;;4983246;28;20992;-76
2023/09/22 11:46:13;;;;;;;7.67;7.47;;;18.80;22.10;;;;;;4983563;28;20410;-77
2023/09/22 11:48:59;;;;;;;7.47;7.00;;;18.90;21.80;;;;;;4985082;28;20452;-77
2023/09/22 11:51:50;;;;;;;8.80;8.50;;;18.90;20.90;;;;;;4985447;28;20440;-77
2023/09/22 11:54:20;;;;;;;8.33;8.03;;;18.90;22.00;;;;;;4983694;28;20438;-77
2023/09/22 11:56:47;;;;;;;7.93;7.63;;;18.90;22.00;;;;;;4987383;28;20483;-77
2023/09/22 11:59:20;;;;;;;8.37;8.17;;;19.10;21.90;;;;;;4986582;28;20547;-77
2023/09/22 12:01:47;;;;;;;8.27;7.87;;;19.10;21.10;;;;;;4964714;28;21003;-76
2023/09/22 12:04:14;;;;;;;9.20;8.50;;;19.10;21.10;;;;;;4986368;28;20996;-77
2023/09/22 12:06:43;;;;;;;7.80;7.50;;;19.00;20.50;;;;;;4983973;28;20418;-76
2023/09/22 12:09:11;;;;;;;8.50;8.20;;;19.10;20.50;;;;;;4981785;28;20437;-78
2023/09/22 12:11:37;;;;;;;8.30;8.00;;;19.20;20.10;;;;;;4983973;28;20446;-78
2023/09/22 12:14:04;;;;;;;8.93;8.60;;;19.30;20.10;;;;;;4983662;28;20426;-79
2023/09/22 12:16:30;;;;;;;8.90;8.60;;;19.40;19.80;;;;;;4985385;28;20513;-78
2023/09/22 12:18:56;;;;;;;8.17;7.90;;;19.40;20.30;;;;;;4981348;28;20607;-78
2023/09/22 12:21:22;;;;;;;8.27;7.97;;;19.50;19.20;;;;;;4980374;28;20815;-78
2023/09/22 12:23:47;;;;;;;7.80;7.50;;;19.50;18.90;;;;;;4986514;28;20426;-78
2023/09/22 12:26:13;;;;;;;8.00;7.80;;;19.50;18.70;;;;;;4980684;28;20560;-78
2023/09/22 12:28:40;;;;;;;8.20;7.90;;;19.40;18.60;;;;;;4988489;28;20182;-77
2023/09/22 12:31:06;;;;;;;8.73;8.43;;;19.40;18.80;;;;;;4980260;28;20277;-78
2023/09/22 12:33:32;;;;;;;8.23;7.87;;;19.40;18.70;;;;;;4982031;28;20433;-78
2023/09/22 12:35:58;;;;;;;8.67;8.27;;;19.50;18.70;;;;;;4983965;28;20178;-78
2023/09/22 12:38:24;;;;;;;8.57;8.17;;;19.40;18.60;;;;;;4982863;28;20475;-76
2023/09/22 12:40:52;;;;;;;8.40;8.10;;;19.50;18.00;;;;;;4979556;28;20545;-77
2023/09/22 12:43:18;;;;;;;8.27;7.97;;;19.50;18.70;;;;;;4980792;28;20429;-78
2023/09/22 12:45:44;;;;;;;8.10;7.73;;;19.60;18.80;;;;;;4979084;28;20430;-78
2023/09/22 12:48:13;;;;;;;7.97;7.67;;;19.60;18.10;;;;;;4983521;28;20245;-79